Time;durP1;ratioP1;P1;durP2;ratioP2;P2;SDS_P1;SDS_P2;PMS_P1;PMS_P2;Temp;Humidity;BMP_temperature;BMP_pressure;BME280_temperature;BME280_humidity;BME280_pressure;Samples;Min_cycle;Max_cycle;Signal;HPM_P1;HPM_P2
2023/03/26 00:01:24;;;;;;;16.55;9.60;;;;;;;13.59;73.31;98973.50;3162533;28;20063;-70
2023/03/26 00:02:56;;;;;;;23.48;10.70;;;;;;;13.47;73.48;98979.63;3162108;28;20055;-71
2023/03/26 00:04:32;;;;;;;17.95;10.48;;;;;;;13.35;73.56;98981.31;3162086;28;20504;-71
2023/03/26 00:06:08;;;;;;;15.18;9.90;;;;;;;13.24;73.42;98989.84;3163406;28;20058;-70
2023/03/26 00:07:41;;;;;;;15.05;9.70;;;;;;;13.13;73.81;98984.50;3163613;28;20054;-69
2023/03/26 00:09:13;;;;;;;17.05;9.60;;;;;;;13.09;73.81;98981.28;3162445;28;20044;-68
2023/03/26 00:10:45;;;;;;;17.33;9.70;;;;;;;13.06;73.47;98980.66;3158575;27;20480;-68
2023/03/26 00:12:17;;;;;;;14.88;8.95;;;;;;;12.97;73.50;98982.97;3162573;28;20806;-68
2023/03/26 00:13:48;;;;;;;14.30;8.98;;;;;;;12.90;73.37;98986.94;3153560;28;20367;-67
2023/03/26 00:15:20;;;;;;;13.70;8.80;;;;;;;12.78;73.53;98973.84;3156982;28;20552;-67
2023/03/26 00:16:52;;;;;;;13.88;8.95;;;;;;;12.77;73.30;98983.47;3160563;28;20587;-67
2023/03/26 00:18:29;;;;;;;14.82;8.95;;;;;;;12.73;73.20;98980.22;3149700;28;20055;-67
2023/03/26 00:20:01;;;;;;;15.27;9.18;;;;;;;12.69;73.37;98983.16;3162618;28;20051;-66
2023/03/26 00:21:35;;;;;;;14.60;8.43;;;;;;;12.61;73.66;98980.22;3163337;28;20056;-70
2023/03/26 00:23:07;;;;;;;15.90;9.02;;;;;;;12.62;73.71;98979.28;3160050;28;20138;-69
2023/03/26 00:24:40;;;;;;;15.38;9.55;;;;;;;12.52;73.96;98964.22;3158914;28;20117;-70
2023/03/26 00:26:12;;;;;;;13.98;8.57;;;;;;;12.63;74.04;98980.94;3160426;28;20458;-70
2023/03/26 00:27:44;;;;;;;14.88;9.65;;;;;;;12.61;74.17;98975.81;3159406;28;20281;-70
2023/03/26 00:29:17;;;;;;;17.30;9.88;;;;;;;12.61;74.58;98975.00;3159591;28;20051;-70
2023/03/26 00:30:51;;;;;;;15.98;10.25;;;;;;;12.62;74.69;98974.03;3163212;28;20056;-70
2023/03/26 00:32:26;;;;;;;15.77;9.93;;;;;;;12.62;75.02;98974.03;3163008;28;20123;-71
2023/03/26 00:34:01;;;;;;;16.20;10.02;;;;;;;12.63;75.29;98962.66;3162713;28;20234;-71
2023/03/26 00:35:36;;;;;;;15.75;10.32;;;;;;;12.64;75.43;98961.72;3161964;28;20047;-71
2023/03/26 00:37:11;;;;;;;14.82;9.98;;;;;;;12.64;75.75;98954.72;3162003;28;20889;-71
2023/03/26 00:38:57;;;;;;;15.23;9.93;;;;;;;12.67;75.43;98958.91;3163584;28;20526;-70
2023/03/26 00:40:30;;;;;;;16.88;10.75;;;;;;;12.71;75.70;98955.13;3167216;28;20100;-71
2023/03/26 00:42:05;;;;;;;;;;;;;;;12.71;75.72;98949.91;3172130;27;20047;-71
2023/03/26 00:43:36;;;;;;;21.40;11.02;;;;;;;12.73;75.78;98958.50;3169041;28;19920;-71
2023/03/26 00:45:09;;;;;;;16.83;11.45;;;;;;;12.73;75.86;98945.44;3172046;28;20166;-71
2023/03/26 00:46:41;;;;;;;17.95;12.15;;;;;;;12.77;75.90;98949.50;3171773;28;20048;-71
2023/03/26 00:48:12;;;;;;;17.63;12.07;;;;;;;12.84;75.65;98955.16;3171774;28;20090;-71
2023/03/26 00:49:45;;;;;;;18.35;12.23;;;;;;;12.87;75.95;98949.72;3171638;28;20216;-71
2023/03/26 00:51:18;;;;;;;21.70;13.05;;;;;;;12.89;75.91;98943.44;3172007;28;20134;-71
2023/03/26 00:52:54;;;;;;;18.60;12.48;;;;;;;12.92;75.71;98945.00;3171821;28;20112;-71
2023/03/26 00:54:27;;;;;;;17.23;10.85;;;;;;;12.93;76.08;98941.47;3171722;28;20079;-71
2023/03/26 00:55:59;;;;;;;17.80;10.95;;;;;;;13.02;75.96;98950.47;3171556;28;20055;-70
2023/03/26 00:57:31;;;;;;;18.20;12.13;;;;;;;13.04;75.67;98952.00;3170400;28;20458;-71
2023/03/26 00:59:03;;;;;;;20.67;11.45;;;;;;;13.08;75.61;98957.88;3160033;28;20044;-69
2023/03/26 01:00:36;;;;;;;19.73;11.38;;;;;;;13.09;75.58;98957.75;3171420;28;20048;-70
2023/03/26 01:02:11;;;;;;;16.48;11.30;;;;;;;13.12;75.83;98959.31;3171837;27;20056;-68
2023/03/26 01:03:45;;;;;;;17.15;11.10;;;;;;;13.16;75.52;98966.88;3158763;28;20044;-68
2023/03/26 01:05:35;;;;;;;;;;;;;;;13.18;75.21;98971.97;3172068;28;20498;-70
2023/03/26 01:07:12;;;;;;;17.45;11.20;;;;;;;13.18;75.04;98953.69;3158838;28;20355;-70
2023/03/26 01:08:46;;;;;;;15.30;10.25;;;;;;;13.27;75.35;98967.91;3171021;28;20130;-70
2023/03/26 01:10:21;;;;;;;16.20;10.02;;;;;;;13.30;75.25;98955.47;3171411;28;20417;-71
2023/03/26 01:11:53;;;;;;;18.38;10.18;;;;;;;13.33;74.97;98951.81;3171155;28;20079;-70
2023/03/26 01:13:24;;;;;;;17.13;10.13;;;;;;;13.35;74.81;98960.38;3162640;28;20055;-71
2023/03/26 01:14:59;;;;;;;18.00;10.27;;;;;;;13.39;74.85;98967.88;3171453;28;20153;-70
2023/03/26 01:16:36;;;;;;;14.05;8.50;;;;;;;13.41;74.63;98976.47;3171444;28;20067;-70
2023/03/26 01:18:12;;;;;;;14.90;9.88;;;;;;;13.44;74.62;98988.50;3171105;28;20134;-70
2023/03/26 01:19:50;;;;;;;14.00;9.43;;;;;;;13.47;74.46;98990.06;3169143;28;20502;-70
2023/03/26 01:21:27;;;;;;;14.30;9.57;;;;;;;13.49;74.26;98993.41;3158564;28;20478;-70
2023/03/26 01:23:04;;;;;;;14.18;8.75;;;;;;;13.25;74.23;98947.13;3162039;28;20060;-70
2023/03/26 01:24:37;;;;;;;16.33;9.32;;;;;;;13.51;74.30;98987.13;3161746;28;20515;-71
2023/03/26 01:26:23;;;;;;;11.82;8.30;;;;;;;13.56;73.95;98989.44;3161211;28;20051;-70
2023/03/26 01:27:56;;;;;;;12.55;8.20;;;;;;;13.61;73.87;98993.41;3156581;28;20064;-70
2023/03/26 01:29:32;;;;;;;12.00;8.30;;;;;;;13.64;73.61;98987.94;3160700;28;20048;-70
2023/03/26 01:31:14;;;;;;;14.18;8.18;;;;;;;13.67;73.41;98991.28;3161931;28;20051;-71
2023/03/26 01:32:59;;;;;;;13.95;8.30;;;;;;;13.68;72.85;98993.78;3161448;28;20485;-70
2023/03/26 01:34:40;;;;;;;13.18;8.38;;;;;;;13.69;73.08;98998.06;3157167;28;20051;-71
2023/03/26 01:36:18;;;;;;;12.38;8.43;;;;;;;13.71;72.86;98992.75;3149633;28;20520;-71
2023/03/26 01:38:00;;;;;;;15.65;8.18;;;;;;;13.72;72.54;98992.63;3161109;28;20109;-71
2023/03/26 01:39:41;;;;;;;10.25;7.55;;;;;;;13.72;72.17;98994.41;3160802;28;20071;-71
2023/03/26 01:41:21;;;;;;;10.95;7.93;;;;;;;13.72;72.37;99005.69;3161408;28;20067;-71
2023/03/26 01:42:59;;;;;;;14.35;7.45;;;;;;;13.74;72.08;99009.06;3158679;28;20066;-71
2023/03/26 01:44:38;;;;;;;10.82;6.85;;;;;;;13.75;71.76;99009.88;3160167;28;20522;-70
2023/03/26 01:46:12;;;;;;;14.57;7.35;;;;;;;13.74;71.30;99008.22;3161378;28;20059;-67
2023/03/26 01:47:46;;;;;;;11.60;6.50;;;;;;;13.75;70.93;99012.50;3160881;28;20059;-68
2023/03/26 01:49:19;;;;;;;10.05;6.53;;;;;;;13.74;70.55;99016.91;3161311;28;20048;-68
2023/03/26 01:50:55;;;;;;;11.88;6.63;;;;;;;13.76;70.07;99016.81;3161628;28;20102;-67
2023/03/26 01:52:27;;;;;;;13.00;6.47;;;;;;;13.78;69.70;99018.38;3160811;28;20058;-69
2023/03/26 01:54:01;;;;;;;10.10;6.85;;;;;;;13.81;69.35;99012.91;3161754;28;20051;-70
2023/03/26 01:55:48;;;;;;;8.48;5.80;;;;;;;13.83;69.44;99013.63;3161396;28;20047;-70
2023/03/26 01:57:30;;;;;;;7.95;5.95;;;;;;;13.86;69.24;99017.81;3161724;28;20103;-71
2023/03/26 01:59:24;;;;;;;9.52;6.00;;;;;;;13.86;68.74;99013.41;3150304;28;20060;-72
2023/03/26 02:03:16;;;;;;;8.40;4.80;;;;;;;13.83;68.08;99018.84;3159157;28;20121;-71
2023/03/26 02:04:55;;;;;;;7.32;5.05;;;;;;;13.80;67.58;99013.84;3160252;28;20052;-70
2023/03/26 02:06:36;;;;;;;8.23;4.60;;;;;;;13.81;67.24;99012.91;3160956;28;20075;-71
2023/03/26 02:08:19;;;;;;;10.48;4.10;;;;;;;13.83;66.61;99010.19;3160441;28;20055;-71
2023/03/26 02:09:56;;;;;;;6.78;4.07;;;;;;;13.85;66.12;99019.59;3160268;28;20058;-69
2023/03/26 02:11:29;;;;;;;7.07;3.90;;;;;;;13.86;65.54;99017.81;3161039;28;20051;-71
2023/03/26 02:13:02;;;;;;;7.25;4.72;;;;;;;13.89;65.51;99012.34;3156044;28;20048;-70
2023/03/26 02:14:34;;;;;;;6.22;3.65;;;;;;;13.92;64.70;99013.94;3157307;28;20566;-71
2023/03/26 02:16:10;;;;;;;6.00;3.63;;;;;;;13.94;64.62;99014.66;3160689;28;20204;-71
2023/03/26 02:17:42;;;;;;;5.93;3.75;;;;;;;13.95;64.31;99011.09;3156949;28;20105;-68
2023/03/26 02:19:20;;;;;;;5.50;3.42;;;;;;;13.99;64.30;99020.38;3160086;28;20047;-70
2023/03/26 02:20:52;;;;;;;6.13;3.70;;;;;;;14.00;63.72;99014.22;3160534;28;20556;-70
2023/03/26 02:22:28;;;;;;;6.38;3.60;;;;;;;13.99;63.60;99015.16;3160623;28;20551;-70
2023/03/26 02:24:02;;;;;;;5.00;3.13;;;;;;;14.04;63.59;99006.03;3160224;28;20059;-70
2023/03/26 02:25:38;;;;;;;5.47;3.17;;;;;;;14.08;63.21;99010.09;3160438;28;20100;-73
2023/03/26 02:27:12;;;;;;;7.72;3.63;;;;;;;14.11;63.01;99006.44;3160558;28;20130;-70
2023/03/26 02:28:44;;;;;;;4.93;3.13;;;;;;;14.14;62.52;99011.44;3154205;28;20043;-69
2023/03/26 02:30:20;;;;;;;5.00;2.63;;;;;;;14.15;61.94;99007.03;3160581;28;20047;-70
2023/03/26 02:31:52;;;;;;;6.00;2.88;;;;;;;14.17;61.39;99006.00;3160999;28;20057;-70
2023/03/26 02:33:24;;;;;;;4.13;2.70;;;;;;;14.19;61.11;99011.94;3161990;28;20059;-70
2023/03/26 02:34:56;;;;;;;5.60;2.83;;;;;;;14.11;60.86;98991.56;3164028;28;20623;-70
2023/03/26 02:36:28;;;;;;;3.75;2.70;;;;;;;14.25;60.54;99008.84;3160906;28;20051;-71
2023/03/26 02:38:01;;;;;;;3.33;2.08;;;;;;;14.27;60.32;99022.69;3161901;28;20063;-70
2023/03/26 02:39:33;;;;;;;7.63;2.65;;;;;;;14.28;59.59;99018.28;3160819;28;20051;-70
2023/03/26 02:41:05;;;;;;;4.30;2.25;;;;;;;14.28;59.57;99019.09;3160635;28;20156;-70
2023/03/26 02:42:39;;;;;;;6.18;2.13;;;;;;;14.30;59.31;99017.22;3158166;28;20055;-70
2023/03/26 02:44:11;;;;;;;4.07;1.90;;;;;;;14.30;58.71;99017.22;3160626;28;20527;-70
2023/03/26 02:45:44;;;;;;;6.28;2.03;;;;;;;14.32;58.43;99020.56;3148417;28;20837;-69
2023/03/26 02:47:18;;;;;;;7.75;2.00;;;;;;;14.33;57.71;99017.00;3160512;28;20071;-70
2023/03/26 02:48:50;;;;;;;6.00;1.77;;;;;;;14.36;57.27;99028.22;3161330;28;20051;-70
2023/03/26 02:50:22;;;;;;;3.25;1.50;;;;;;;14.38;56.88;99023.72;3161039;28;20051;-70
2023/03/26 02:51:55;;;;;;;2.40;1.52;;;;;;;14.25;56.94;99008.84;3160671;28;20166;-71
2023/03/26 02:53:28;;;;;;;3.00;1.35;;;;;;;14.44;56.57;99041.59;3160516;28;20116;-70
2023/03/26 02:54:59;;;;;;;5.93;1.42;;;;;;;14.43;56.35;99032.88;3161215;28;20458;-71
2023/03/26 02:56:31;;;;;;;2.20;1.20;;;;;;;14.44;55.61;99036.34;3160778;28;20051;-71
2023/03/26 02:58:05;;;;;;;2.58;1.30;;;;;;;14.46;55.66;99035.25;3154726;28;20048;-72
2023/03/26 02:59:37;;;;;;;4.80;1.52;;;;;;;14.45;55.56;99035.41;3156070;28;20060;-72
2023/03/26 03:01:09;;;;;;;4.25;1.20;;;;;;;14.47;54.86;99039.56;3159923;28;20048;-72
2023/03/26 03:02:43;;;;;;;2.25;1.10;;;;;;;14.47;54.71;99039.56;3161088;28;20190;-71
2023/03/26 03:04:16;;;;;;;4.10;0.90;;;;;;;14.46;54.38;99050.16;3160605;28;20770;-72
2023/03/26 03:05:48;;;;;;;1.52;0.88;;;;;;;14.44;54.41;99046.84;3160501;28;20085;-72
2023/03/26 03:07:23;;;;;;;1.63;0.90;;;;;;;14.45;54.14;99048.50;3160677;28;20105;-72
2023/03/26 03:08:55;;;;;;;2.08;1.00;;;;;;;14.44;53.95;99049.44;3160377;28;20548;-72
2023/03/26 03:10:31;;;;;;;2.17;0.90;;;;;;;14.44;54.12;99050.28;3155848;28;20454;-72
2023/03/26 03:12:03;;;;;;;1.90;1.00;;;;;;;14.44;53.92;99057.31;3159827;28;20455;-72
2023/03/26 03:13:37;;;;;;;2.10;1.00;;;;;;;14.44;53.72;99049.44;3154621;28;20817;-72
2023/03/26 03:15:10;;;;;;;1.45;0.85;;;;;;;14.42;53.56;99052.16;3154650;28;20513;-72
2023/03/26 03:16:42;;;;;;;1.38;0.85;;;;;;;14.39;53.48;99048.94;3160837;28;20051;-72
2023/03/26 03:18:13;;;;;;;1.08;0.70;;;;;;;14.04;53.34;98994.72;3148021;28;20222;-71
2023/03/26 03:19:45;;;;;;;2.58;0.75;;;;;;;14.40;53.07;99053.22;3159635;28;20046;-72
2023/03/26 03:21:17;;;;;;;1.42;0.57;;;;;;;14.39;52.86;99054.19;3160699;28;20059;-70
2023/03/26 03:22:49;;;;;;;1.35;1.00;;;;;;;14.38;53.02;99060.38;3160282;28;20131;-72
2023/03/26 03:24:22;;;;;;;4.78;1.10;;;;;;;14.32;52.94;99048.56;3160010;28;20056;-72
2023/03/26 03:25:55;;;;;;;1.95;0.93;;;;;;;14.30;52.53;99064.38;3160413;28;20084;-71
2023/03/26 03:27:28;;;;;;;1.08;0.70;;;;;;;14.33;52.69;99058.06;3159112;28;20039;-71
2023/03/26 03:29:01;;;;;;;2.38;0.80;;;;;;;14.30;52.56;99060.91;3155638;28;20516;-70
2023/03/26 03:30:33;;;;;;;1.35;0.70;;;;;;;14.29;52.17;99072.34;3159503;28;20109;-71
2023/03/26 03:32:05;;;;;;;1.42;0.60;;;;;;;14.25;52.12;99073.50;3160076;28;20226;-71
2023/03/26 03:33:36;;;;;;;2.10;0.70;;;;;;;14.25;52.26;99070.88;3160565;28;20044;-70
2023/03/26 03:35:09;;;;;;;1.48;0.70;;;;;;;14.22;52.23;99071.94;3160435;28;20096;-70
2023/03/26 03:36:41;;;;;;;1.25;0.50;;;;;;;14.22;52.18;99079.78;3160559;28;20054;-71
2023/03/26 03:38:13;;;;;;;6.93;1.00;;;;;;;14.21;52.19;99079.91;3159895;28;20058;-71
2023/03/26 03:39:45;;;;;;;0.70;0.40;;;;;;;14.21;52.30;99082.53;3159975;28;20070;-71
2023/03/26 03:41:18;;;;;;;1.73;0.52;;;;;;;14.18;52.18;99078.34;3156620;28;20051;-71
2023/03/26 03:42:50;;;;;;;0.70;0.50;;;;;;;14.14;52.31;99076.03;3158067;28;20112;-71
2023/03/26 03:44:23;;;;;;;1.70;0.50;;;;;;;14.11;52.38;99082.38;3152586;28;20058;-70
2023/03/26 03:45:54;;;;;;;1.20;0.50;;;;;;;14.09;52.25;99087.69;3160872;28;20051;-71
2023/03/26 03:47:27;;;;;;;1.08;0.50;;;;;;;14.07;52.38;99088.75;3161242;28;20528;-71
2023/03/26 03:48:59;;;;;;;0.82;0.70;;;;;;;14.02;52.26;99096.94;3151947;28;20605;-71
2023/03/26 03:50:31;;;;;;;2.90;0.93;;;;;;;14.00;52.11;99098.81;3160913;28;20411;-72
2023/03/26 03:52:04;;;;;;;1.20;0.57;;;;;;;13.96;52.21;99086.03;3161065;28;20624;-71
2023/03/26 03:53:39;;;;;;;2.83;0.63;;;;;;;13.96;52.34;99107.84;3160467;28;20065;-71
2023/03/26 03:55:12;;;;;;;0.88;0.70;;;;;;;13.95;52.25;99105.31;3160364;28;20051;-71
2023/03/26 03:56:46;;;;;;;;;;;;;;;13.89;52.42;99101.34;3160321;28;20047;-72
2023/03/26 03:58:20;;;;;;;5.68;0.63;;;;;;;13.84;52.58;99109.53;3158951;28;19977;-71
2023/03/26 03:59:57;;;;;;;1.38;0.60;;;;;;;13.83;52.59;99101.78;3150893;28;20063;-73
2023/03/26 04:01:29;;;;;;;2.00;0.60;;;;;;;13.79;52.42;99100.34;3155660;28;20618;-71
2023/03/26 04:03:05;;;;;;;0.95;0.40;;;;;;;13.80;52.53;99115.91;3156464;28;20060;-72
2023/03/26 04:04:37;;;;;;;1.30;0.50;;;;;;;13.72;52.34;99105.13;3154997;28;20583;-72
2023/03/26 04:06:09;;;;;;;1.03;0.63;;;;;;;13.71;52.35;99113.94;3159550;28;20090;-71
2023/03/26 04:07:42;;;;;;;1.15;0.52;;;;;;;13.64;52.58;99107.47;3158701;28;20313;-71
2023/03/26 04:09:14;;;;;;;0.93;0.50;;;;;;;13.58;52.90;99093.03;3159499;28;20386;-71
2023/03/26 04:10:45;;;;;;;1.20;0.65;;;;;;;13.38;52.81;99073.44;3159038;28;20380;-70
2023/03/26 04:12:18;;;;;;;6.07;0.60;;;;;;;13.56;52.72;99100.13;3159443;28;20050;-70
2023/03/26 04:13:50;;;;;;;1.35;0.70;;;;;;;13.58;52.88;99113.94;3150195;28;20113;-71
2023/03/26 04:15:23;;;;;;;3.33;0.80;;;;;;;13.58;52.89;99115.72;3159513;28;20116;-71
2023/03/26 04:16:55;;;;;;;1.85;0.57;;;;;;;13.55;52.79;99111.53;3158959;28;20090;-70
2023/03/26 04:18:29;;;;;;;0.85;0.60;;;;;;;13.54;52.78;99122.94;3152837;28;20571;-70
2023/03/26 04:20:13;;;;;;;1.25;0.57;;;;;;;13.53;52.92;99109.97;3159998;28;20065;-71
2023/03/26 04:21:44;;;;;;;1.15;0.73;;;;;;;13.48;53.01;99112.88;3159622;28;20124;-71
2023/03/26 04:23:18;;;;;;;0.68;0.40;;;;;;;13.49;53.01;99118.94;3160077;28;20113;-71
2023/03/26 04:24:53;;;;;;;1.35;0.60;;;;;;;13.45;52.73;99113.09;3160639;28;20135;-70
2023/03/26 04:26:25;;;;;;;1.00;0.50;;;;;;;13.47;53.11;99124.28;3161171;28;20059;-71
2023/03/26 04:28:00;;;;;;;2.17;0.52;;;;;;;13.48;52.99;99122.50;3153037;28;20056;-71
2023/03/26 04:29:41;;;;;;;1.90;0.57;;;;;;;13.47;52.90;99126.91;3156760;28;20056;-71
2023/03/26 04:31:17;;;;;;;1.25;0.68;;;;;;;13.46;52.86;99137.47;3151596;28;20141;-71
2023/03/26 04:32:50;;;;;;;1.27;0.63;;;;;;;13.45;52.87;99141.03;3155820;28;20051;-71
2023/03/26 04:34:24;;;;;;;1.17;0.63;;;;;;;13.07;53.20;99076.41;3164458;28;20508;-72
2023/03/26 04:36:00;;;;;;;0.65;0.50;;;;;;;13.41;52.98;99148.25;3164447;28;20408;-71
2023/03/26 04:37:38;;;;;;;2.63;0.63;;;;;;;13.39;53.28;99144.91;3163965;28;20555;-72
2023/03/26 04:39:13;;;;;;;2.92;0.52;;;;;;;13.35;53.09;99144.28;3164101;28;20063;-71
2023/03/26 04:40:46;;;;;;;0.68;0.50;;;;;;;13.39;53.12;99150.97;3163223;28;20043;-72
2023/03/26 04:42:19;;;;;;;1.23;0.63;;;;;;;13.28;53.08;99135.16;3163939;28;20498;-71
2023/03/26 04:43:51;;;;;;;1.38;0.55;;;;;;;13.33;53.52;99143.53;3163965;28;20053;-71
2023/03/26 04:45:23;;;;;;;3.08;1.45;;;;;;;13.38;53.17;99158.91;3166608;28;20058;-71
2023/03/26 04:46:56;;;;;;;2.83;0.65;;;;;;;13.38;53.16;99159.75;3166507;28;20056;-71
2023/03/26 04:48:29;;;;;;;1.63;0.70;;;;;;;13.37;53.41;99162.50;3166746;28;20062;-70
2023/03/26 04:50:01;;;;;;;2.03;1.27;;;;;;;13.34;53.24;99166.13;3166501;28;20052;-70
2023/03/26 04:51:38;;;;;;;1.35;0.60;;;;;;;13.34;53.30;99163.53;3166140;28;20052;-71
2023/03/26 04:53:12;;;;;;;1.67;0.70;;;;;;;13.34;53.43;99162.66;3166433;28;20558;-70
2023/03/26 04:54:45;;;;;;;1.75;0.80;;;;;;;13.34;53.23;99173.13;3166614;28;20143;-71
2023/03/26 04:56:30;;;;;;;3.33;0.90;;;;;;;13.19;53.59;99148.78;3166692;28;20164;-71
2023/03/26 04:58:04;;;;;;;1.00;0.60;;;;;;;13.30;53.59;99176.91;3159083;28;20067;-71
2023/03/26 04:59:36;;;;;;;0.75;0.40;;;;;;;13.30;53.45;99175.09;3159404;28;20051;-71
2023/03/26 05:01:09;;;;;;;1.08;0.50;;;;;;;13.29;53.47;99178.69;3166685;28;20360;-71
2023/03/26 05:02:44;;;;;;;1.10;0.60;;;;;;;12.84;53.27;99104.09;3166111;28;20048;-71
2023/03/26 05:04:16;;;;;;;2.15;0.50;;;;;;;13.32;53.57;99178.47;3166169;28;20086;-70
2023/03/26 05:05:48;;;;;;;3.42;0.63;;;;;;;13.33;53.19;99182.75;3166314;28;20611;-69
2023/03/26 05:07:22;;;;;;;2.72;0.60;;;;;;;13.33;53.51;99190.59;3166270;28;20058;-71
2023/03/26 05:08:54;;;;;;;0.95;0.60;;;;;;;13.32;53.15;99202.00;3166442;28;20057;-71
2023/03/26 05:10:26;;;;;;;2.45;0.70;;;;;;;13.32;53.23;99195.94;3166204;28;20080;-70
2023/03/26 05:11:57;;;;;;;3.15;0.68;;;;;;;13.31;53.03;99200.34;3166402;28;20135;-71
2023/03/26 05:13:29;;;;;;;2.40;0.70;;;;;;;13.30;53.02;99205.66;3156966;28;20746;-70
2023/03/26 05:15:01;;;;;;;1.02;0.60;;;;;;;13.24;53.38;99191.19;3158982;28;20055;-71
2023/03/26 05:16:34;;;;;;;1.02;0.68;;;;;;;13.30;53.06;99206.50;3166166;28;20821;-70
2023/03/26 05:18:08;;;;;;;5.28;0.77;;;;;;;13.32;53.10;99207.25;3166518;28;20051;-70
2023/03/26 05:19:40;;;;;;;;;;;;;;;13.34;53.10;99204.50;3166698;28;20059;-72
2023/03/26 05:21:12;;;;;;;1.33;0.73;;;;;;;13.33;53.49;99206.28;3166139;28;19923;-73
2023/03/26 05:22:44;;;;;;;1.65;0.80;;;;;;;13.35;53.18;99206.19;3165962;28;20104;-73
2023/03/26 05:24:17;;;;;;;1.88;0.85;;;;;;;13.38;53.07;99201.59;3166304;28;20055;-72
2023/03/26 05:25:49;;;;;;;;;;;;;;;13.39;53.26;99207.66;3166631;28;20051;-72
2023/03/26 05:27:21;;;;;;;2.22;0.80;;;;;;;13.37;53.26;99207.78;3166313;28;19931;-72
2023/03/26 05:28:52;;;;;;;1.00;0.77;;;;;;;13.39;53.29;99207.66;3159904;28;20055;-72
2023/03/26 05:30:24;;;;;;;1.70;0.88;;;;;;;13.40;53.54;99218.03;3166078;28;20425;-70
2023/03/26 05:31:56;;;;;;;1.90;0.73;;;;;;;13.38;53.69;99219.91;3166113;28;20162;-71
2023/03/26 05:33:29;;;;;;;3.28;0.70;;;;;;;13.35;53.87;99212.25;3165986;28;20047;-71
2023/03/26 05:35:02;;;;;;;2.78;0.57;;;;;;;13.38;53.91;99213.84;3160037;28;20144;-71
2023/03/26 05:36:34;;;;;;;1.55;0.75;;;;;;;13.38;53.98;99217.28;3156806;28;20055;-71
2023/03/26 05:38:07;;;;;;;1.80;0.82;;;;;;;13.38;53.90;99221.69;3166220;28;20112;-71
2023/03/26 05:39:38;;;;;;;1.50;0.90;;;;;;;13.37;54.13;99223.47;3166131;28;20059;-71
2023/03/26 05:41:10;;;;;;;2.42;0.90;;;;;;;13.38;53.81;99222.53;3162489;28;20112;-71
2023/03/26 05:42:43;;;;;;;1.30;0.80;;;;;;;13.00;53.96;99171.88;3163337;28;20048;-71
2023/03/26 05:44:15;;;;;;;1.20;0.87;;;;;;;13.34;53.85;99214.97;3163104;28;20413;-71
2023/03/26 05:45:47;;;;;;;0.90;0.60;;;;;;;13.42;54.12;99226.59;3165930;28;20317;-71
2023/03/26 05:47:19;;;;;;;3.15;0.90;;;;;;;13.42;54.09;99228.38;3166471;28;20047;-71
2023/03/26 05:48:53;;;;;;;2.15;0.95;;;;;;;13.45;54.40;99228.19;3165946;28;20562;-70
2023/03/26 05:50:24;;;;;;;1.70;0.90;;;;;;;13.49;54.26;99234.03;3163821;28;20052;-71
2023/03/26 05:51:56;;;;;;;1.15;0.65;;;;;;;13.57;54.40;99232.59;3162374;28;20271;-72
2023/03/26 05:53:29;;;;;;;3.58;0.98;;;;;;;13.72;54.01;99229.91;3165640;27;20052;-71
2023/03/26 05:55:01;;;;;;;2.37;0.70;;;;;;;13.97;53.62;99239.56;3166023;28;20059;-71
2023/03/26 05:56:33;;;;;;;3.65;1.35;;;;;;;14.15;53.10;99248.78;3165540;28;20071;-70
2023/03/26 05:58:05;;;;;;;3.15;0.63;;;;;;;14.31;52.75;99243.31;3159607;28;20062;-72
2023/03/26 05:59:37;;;;;;;2.72;1.00;;;;;;;14.48;52.65;99255.22;3158214;28;20047;-72
2023/03/26 06:01:15;;;;;;;1.50;0.90;;;;;;;14.60;52.02;99251.78;3165920;28;20052;-72
2023/03/26 06:02:47;;;;;;;1.92;1.05;;;;;;;14.64;52.02;99258.50;3165720;28;20520;-71
2023/03/26 06:04:20;;;;;;;1.38;0.80;;;;;;;14.75;51.78;99260.34;3165870;28;20048;-72
2023/03/26 06:05:52;;;;;;;1.35;0.70;;;;;;;14.84;51.94;99271.97;3165948;28;20082;-73
2023/03/26 06:07:25;;;;;;;1.05;0.63;;;;;;;14.86;51.54;99270.06;3165633;28;20058;-76
2023/03/26 06:08:57;;;;;;;2.95;0.73;;;;;;;14.89;51.41;99275.09;3166003;28;20060;-76
2023/03/26 06:10:30;;;;;;;1.23;0.70;;;;;;;14.97;51.60;99284.09;3166057;28;20051;-72
2023/03/26 06:12:01;;;;;;;1.80;0.80;;;;;;;15.08;51.33;99278.06;3165200;28;20047;-75
2023/03/26 06:13:33;;;;;;;1.80;0.85;;;;;;;15.17;51.21;99271.31;3161777;28;20078;-77
2023/03/26 06:15:06;;;;;;;5.53;0.93;;;;;;;15.21;51.40;99273.63;3165272;28;20054;-79
2023/03/26 06:16:37;;;;;;;1.70;0.70;;;;;;;15.30;51.10;99289.63;3160840;28;20436;-82
2023/03/26 06:18:09;;;;;;;2.92;1.00;;;;;;;15.40;50.82;99285.38;3157141;28;20527;-74
2023/03/26 06:19:43;;;;;;;2.13;1.05;;;;;;;15.45;50.82;99276.22;3165399;28;20051;-78
2023/03/26 06:21:14;;;;;;;;;;;;;;;15.59;50.46;99284.88;3165863;28;20150;-74
2023/03/26 06:22:46;;;;;;;1.52;0.90;;;;;;;15.62;50.45;99284.66;3164817;28;19927;-72
2023/03/26 06:24:19;;;;;;;37.47;12.95;;;;;;;15.68;50.25;99286.84;3165962;28;20108;-79
2023/03/26 06:25:51;;;;;;;15.27;8.70;;;;;;;15.75;50.08;99282.81;3165464;28;20101;-70
2023/03/26 06:27:22;;;;;;;2.95;1.95;;;;;;;15.80;49.97;99280.69;3169889;28;20052;-71
2023/03/26 06:28:54;;;;;;;2.15;1.42;;;;;;;15.84;50.02;99278.66;3169053;28;20048;-71
2023/03/26 06:30:26;;;;;;;2.13;1.00;;;;;;;15.87;49.97;99279.25;3162782;28;20813;-76
2023/03/26 06:31:58;;;;;;;2.30;1.38;;;;;;;15.66;49.84;99220.47;3161834;28;20092;-68
2023/03/26 06:33:30;;;;;;;4.05;1.92;;;;;;;15.99;49.40;99280.13;3160952;28;20512;-66
2023/03/26 06:35:03;;;;;;;3.72;1.33;;;;;;;15.98;49.17;99275.00;3157997;28;20070;-68
2023/03/26 06:36:35;;;;;;;2.35;1.65;;;;;;;15.99;49.06;99271.41;3160033;28;20069;-73
2023/03/26 06:38:07;;;;;;;11.50;3.78;;;;;;;16.02;48.72;99263.28;3160263;28;20051;-73
2023/03/26 06:39:39;;;;;;;6.05;2.65;;;;;;;16.17;48.98;99264.75;3160412;28;20510;-76
2023/03/26 06:41:11;;;;;;;8.40;2.20;;;;;;;16.34;48.76;99247.69;3156537;28;20426;-78
2023/03/26 06:42:43;;;;;;;2.75;1.48;;;;;;;16.68;47.71;99251.13;3157146;28;20058;-69
2023/03/26 06:44:15;;;;;;;3.53;0.70;;;;;;;16.99;46.38;99262.69;3156415;28;20147;-75
2023/03/26 06:45:50;;;;;;;6.90;1.00;;;;;;;17.34;45.68;99251.13;3160822;28;20478;-75
2023/03/26 06:47:22;;;;;;;3.63;2.17;;;;;;;17.73;44.58;99252.25;3164431;28;20130;-72
2023/03/26 06:48:54;;;;;;;5.88;3.67;;;;;;;18.14;43.55;99262.94;3164478;28;20082;-75
2023/03/26 06:50:28;;;;;;;2.00;1.17;;;;;;;18.35;42.35;99255.81;3163994;28;20052;-71
2023/03/26 06:52:01;;;;;;;5.78;0.80;;;;;;;18.59;41.60;99252.00;3164274;28;20047;-74
2023/03/26 06:53:33;;;;;;;2.70;0.95;;;;;;;18.92;40.37;99260.59;3164416;28;20115;-79
2023/03/26 06:55:09;;;;;;;1.50;0.70;;;;;;;19.19;39.42;99254.66;3164337;28;20055;-72
2023/03/26 06:56:41;;;;;;;4.38;0.70;;;;;;;19.46;39.55;99253.97;3163617;28;20047;-74
2023/03/26 06:58:13;;;;;;;2.47;0.95;;;;;;;19.67;39.11;99254.72;3160349;28;20508;-72
2023/03/26 06:59:45;;;;;;;2.47;1.10;;;;;;;19.91;39.02;99264.00;3164437;28;20142;-75
2023/03/26 07:01:17;;;;;;;1.45;0.90;;;;;;;20.04;38.16;99264.50;3164147;28;20490;-76
2023/03/26 07:02:50;;;;;;;1.20;0.80;;;;;;;20.24;38.44;99267.94;3164203;28;20575;-78
2023/03/26 07:04:22;;;;;;;3.10;1.10;;;;;;;20.32;37.57;99272.50;3164591;28;20073;-77
2023/03/26 07:05:56;;;;;;;1.25;1.02;;;;;;;20.28;37.44;99266.66;3162392;28;20457;-81
2023/03/26 07:07:29;;;;;;;;;;;;;;;20.20;38.02;99274.47;3163244;28;20051;-78
2023/03/26 07:09:01;;;;;;;1.27;0.85;;;;;;;20.23;37.93;99267.13;3164473;28;19935;-77
2023/03/26 07:10:33;;;;;;;3.83;1.10;;;;;;;20.39;37.67;99278.91;3165154;28;20120;-76
2023/03/26 07:12:05;;;;;;;1.60;0.90;;;;;;;20.48;37.43;99279.84;3164914;28;20062;-76
2023/03/26 07:13:38;;;;;;;4.68;1.13;;;;;;;20.47;37.19;99271.06;3155015;28;20101;-76
2023/03/26 07:15:11;;;;;;;2.45;1.02;;;;;;;20.51;36.83;99283.03;3162975;28;20051;-75
2023/03/26 07:16:43;;;;;;;2.33;0.75;;;;;;;20.60;37.18;99278.69;3164855;28;20051;-76
2023/03/26 07:18:15;;;;;;;1.50;0.85;;;;;;;20.77;36.84;99298.25;3164671;28;20055;-76
2023/03/26 07:19:47;;;;;;;1.80;1.30;;;;;;;20.84;36.08;99289.56;3164453;28;20616;-75
2023/03/26 07:21:21;;;;;;;1.15;0.63;;;;;;;20.82;35.80;99291.56;3164269;28;20055;-75
2023/03/26 07:22:54;;;;;;;1.77;0.75;;;;;;;20.81;35.46;99289.03;3164686;28;20531;-75